Tiempo atmosférico en la estación meteorológica de Alfaro, La Rioja (285 m.)



Fecha
DESCASC
Temp. máxima en grados centígrados (hora)
DESCASC
Temp. mínima en grados centígrados (hora)
DESCASC
Temp. media en grados centígrados
DESCASC
Racha de viento máxima en m/sg (hora)
DESCASC
Velocidad máxima media en intervalos de 10 minutos(hora)
DESCASC
Precipitaciones diarias en mm
DESCASC
Precipitaciones de 00:00 a 06:00 en mm
DESCASC
Precipitaciones de 06:00 a 12:00 en mm
DESCASC
Precipitaciones de 12:00 a 18:00 en mm
DESCASC
Precipitaciones de 18:00 a 24:00 en mm
DESCASC
31-05-2020 27.8 (14:40) 15.4 (06:50) 21.6 13.89 (16:30) 10.28 (16:50) 2.8 0 0 2 0.8
30-05-2020 30 (19:10) 10.1 (06:50) 20.1 8.61 (12:20) 3.33 (01:20) 0 0 0 0 0
29-05-2020 31.1 (17:20) 8.7 (06:40) 19.9 7.5 (19:10) 4.17 (19:10) 0 0 0 0 0
28-05-2020 29.5 (17:10) 11.2 (00:00) 20.3 7.5 (15:50) 5 (11:50) 0 0 0 0 0
27-05-2020 29.5 (16:10) 13.1 (00:00) 21.3 8.06 (17:00) 4.44 (16:50) 0 0 0 0 0
26-05-2020 27.7 (18:40) 13.8 (00:00) 20.8 7.78 (20:20) 5 (00:10) 7.4 6.8 0.6 0 0
25-05-2020 25.7 (16:40) 13.8 (00:00) 19.8 8.89 (22:40) 5.28 (23:00) 0 0 0 0 0
24-05-2020 26.1 (18:30) 10.6 (00:00) 18.4 8.89 (03:10) 5 (03:00) 0 0 0 0 0
23-05-2020 23.2 (15:00) 13.2 (00:00) 18.2 13.33 (17:50) 7.78 (17:50) 0 0 0 0 0
22-05-2020 32.9 (17:00) 11.1 (00:00) 22 7.22 (18:20) 5.28 (17:50) 0 0 0 0 0
21-05-2020 31 (19:20) 12.9 (00:00) 21.9 6.39 (08:50) 3.61 (00:10) 0 0 0 0 0
20-05-2020 30 (16:40) 12.4 (00:00) 21.2 6.94 (16:30) 4.17 (12:30) 0 0 0 0 0
19-05-2020 26.8 (16:10) 12 (00:00) 19.4 12.5 (10:50) 8.33 (10:50) 0 0 0 0 0
18-05-2020 24.8 (15:30) 9.9 (00:00) 17.3 12.78 (14:30) 7.5 (14:30) 0 0 0 0 0
17-05-2020 22.7 (16:40) 9.1 (00:00) 15.9 12.78 (09:40) 7.78 (09:50) 0 0 0 0 0
16-05-2020 19.3 (14:50) 10.6 (00:00) 14.9 13.89 (16:10) 8.33 (17:40) 0 0 0 0 0
15-05-2020 15.2 (16:20) 10.7 (00:00) 12.9 9.44 (22:40) 5.56 (23:50) 0.6 0 0 0.2 0.4
14-05-2020 17.7 (13:00) 10.7 (00:00) 14.2 8.06 (18:30) 4.72 (16:20) 2.6 0 0.2 2 0.4
13-05-2020 20.2 (17:10) 11.3 (00:00) 15.8 6.67 (15:10) 3.61 (15:10) 17 16.6 0 0.4 0
12-05-2020 19.9 (14:20) 9.6 (00:00) 14.8 7.22 (18:20) 4.72 (20:10) 6.4 0 0 0 6.4
11-05-2020 24.6 (16:00) 10.6 (00:00) 17.6 11.39 (18:30) 6.94 (17:10) 0 0 0 0 0
10-05-2020 19 (15:20) 13.6 (00:00) 16.3 11.11 (17:20) 6.67 (17:20) 0.4 0 0 0.2 0.2
09-05-2020 26.3 (17:00) 13.1 (00:00) 19.7 14.17 (18:30) 9.44 (17:50) 2.2 2.2 0 0 0
08-05-2020 28 (16:00) 11.9 (00:00) 19.9 10.83 (18:00) 7.5 (12:00) 0 0 0 0 0
07-05-2020 28.7 (17:20) 10.6 (00:00) 19.7 10 (17:40) 6.67 (17:30) 0 0 0 0 0
06-05-2020 27.6 (15:40) 9 (00:00) 18.3 6.39 (11:20) 3.89 (11:20) 0 0 0 0 0
05-05-2020 27.1 (16:10) 11.3 (00:00) 19.2 5.83 (10:50) 3.89 (22:20) 0 0 0 0 0
04-05-2020 29.6 (17:40) 11.9 (00:00) 20.8 11.67 (19:20) 7.5 (19:20) 0 0 0 0 0
03-05-2020 28.2 (17:20) 9.3 (00:00) 18.8 6.67 (17:10) 4.72 (17:10) 0 0 0 0 0

Gráficas

Temp. máximas Temp. mínimas Temp. medias Precipitaciones Rachas de viento máximas Velocidades máximas media en intervalos de 10 minutos

Datos horarios

Fecha y hora oficial Temperatura (ºC) Velocidad del viento (km/h) Dirección del viento Racha (km/h) Dirección de racha Precipitación (mm) Presión (hPa) Tendencia (hPa) Humedad (%)
2020-06-01 23:00:00 19.4 3 Oeste 8 Sudoeste 0 -- -- 78
2020-06-01 22:00:00 22.2 3 Sudoeste 9 Sur 0 -- -- 69
2020-06-01 21:00:00 25.6 2 Nordeste 6 Nordeste 0 -- -- 53
2020-06-01 20:00:00 27.3 4 Este 9 Norte 0 -- -- 46
2020-06-01 19:00:00 28.4 2 Nordeste 12 Este 0 -- -- 41
2020-06-01 18:00:00 28.4 3 Este 9 Sur 0 -- -- 41
2020-06-01 17:00:00 28.2 3 Este 11 Nordeste 0 -- -- 45
2020-06-01 16:00:00 27.8 3 Sudeste 11 Sudoeste 0 -- -- 49
2020-06-01 15:00:00 26.3 5 Sudeste 13 Sudeste 0 -- -- 49
2020-06-01 14:00:00 24.8 6 Este 14 Sudeste 0 -- -- 59
2020-06-01 13:00:00 23.2 6 Sur 13 Sudoeste 0 -- -- 68
2020-06-01 12:00:00 20 4 Noroeste 9 Noroeste 0 -- -- 79
2020-06-01 11:00:00 18.3 5 Este 9 Este 0 -- -- 90
2020-06-01 10:00:00 17.5 4 Norte 6 Norte 0 -- -- 94
2020-06-01 09:00:00 16.6 2 Nordeste 6 Norte 0 -- -- 98
2020-06-01 08:00:00 15.9 2 Norte 4 Norte 0 -- -- 98
2020-06-01 07:00:00 15.4 2 Noroeste 9 Este 0 -- -- 98
2020-06-01 06:00:00 15.2 7 Este 9 Este 0 -- -- 96
2020-06-01 05:00:00 16 4 Sur 8 Sur 0 -- -- 95
2020-06-01 04:00:00 16.9 4 Sudeste 14 Sudeste 0 -- -- 95
2020-06-01 03:00:00 16.3 12 Sudeste 19 Este 0 -- -- 96
2020-06-01 02:00:00 16.3 5 Este 11 Sudeste 0 -- -- 91
2020-06-01 01:00:00 17.2 5 Sur 17 Sudeste 0 -- -- 90
2020-06-01 00:00:00 17.1 13 Sudeste 16 Sudeste 0 -- -- 89
2020-05-31 23:00:00 18.1 11 Sur 22 Sudoeste 0 -- -- 84
2020-05-31 22:00:00 18.3 12 Sur 21 Sudeste 0 -- -- 87
2020-05-31 21:00:00 18.5 7 Este 16 Nordeste 0 -- -- 88
2020-05-31 20:00:00 19.4 11 Nordeste 17 Nordeste 0 -- -- 84
2020-05-31 19:00:00 18.6 2 Norte 26 Noroeste 0.8 -- -- 86
2020-05-31 18:00:00 17.9 11 Oeste 49 Sudoeste 2 -- -- 84
2020-05-31 17:00:00 19.1 36 Oeste 50 Oeste 0 -- -- 78
2020-05-31 16:00:00 25.9 6 Oeste 15 Sur 0 -- -- 49
2020-05-31 15:00:00 27.1 7 Sur 28 Sudeste 0 -- -- 47
2020-05-31 14:00:00 26.4 17 Sudeste 25 Sudeste 0 -- -- 50
2020-05-31 13:00:00 25.4 13 Sudeste 29 Sur 0 -- -- 52
2020-05-31 12:00:00 23.7 13 Sudeste 29 Sudeste 0 -- -- 60
2020-05-31 11:00:00 22.1 17 Sudeste 27 Sudeste 0 -- -- 67
2020-05-31 10:00:00 21 18 Sudeste 26 Sudeste 0 -- -- 70
2020-05-31 09:00:00 19.5 15 Sudeste 23 Sudeste 0 -- -- 78
2020-05-31 08:00:00 17.3 6 Sudeste 10 Sur 0 -- -- 89
2020-05-31 07:00:00 15.5 7 Sur 12 Sudeste 0 -- -- 92
2020-05-31 06:00:00 15.9 9 Sudeste 15 Sudeste 0 -- -- 90
2020-05-31 05:00:00 16.2 9 Sudeste 14 Sudeste 0 -- -- 90
2020-05-31 04:00:00 17 8 Sudeste 18 Sudeste 0 -- -- 86
2020-05-31 03:00:00 17.6 8 Sudeste 15 Este 0 -- -- 84
2020-05-31 02:00:00 18.9 9 Sudeste 22 Este 0 -- -- 80
2020-05-31 01:00:00 19.4 5 Este 18 Sudeste 0 -- -- 78
2020-05-31 00:00:00 18.9 9 Sudeste 17 Sudeste 0 -- -- 76
2020-05-30 23:00:00 20.2 6 Sur 9 Oeste 0 -- -- 69
2020-05-30 22:00:00 23.5 5 Oeste 8 Sur 0 -- -- 61
2020-05-30 21:00:00 27.5 5 Sur 6 Sur 0 -- -- 49
2020-05-30 20:00:00 29.2 0 Calma 6 Este 0 -- -- 37
2020-05-30 19:00:00 29.6 3 Norte 15 Nordeste 0 -- -- 35
2020-05-30 18:00:00 29.4 5 Este 14 Sudeste 0 -- -- 39
2020-05-30 17:00:00 28.9 10 Este 22 Sudeste 0 -- -- 37
2020-05-30 16:00:00 28.8 9 Sudeste 19 Sudeste 0 -- -- 40
2020-05-30 15:00:00 27.7 9 Sur 22 Sur 0 -- -- 40
2020-05-30 14:00:00 26.8 12 Este 22 Este 0 -- -- 48
2020-05-30 13:00:00 25.4 12 Sudeste 31 Este 0 -- -- 49
2020-05-30 12:00:00 24.1 7 Sudeste 24 Sur 0 -- -- 50
2020-05-30 11:00:00 22.3 6 Este 17 Sudeste 0 -- -- 61
2020-05-30 10:00:00 20.4 7 Sudeste 14 Sudeste 0 -- -- 67
2020-05-30 09:00:00 17.6 0 Calma 4 Sudoeste 0 -- -- 76
2020-05-30 08:00:00 13.5 0 Calma 6 Sur 0 -- -- 95
2020-05-30 07:00:00 10.1 0 Calma 3 Oeste 0 -- -- 93
2020-05-30 06:00:00 10.7 2 Sudoeste 3 Sudoeste 0 -- -- 92
2020-05-30 05:00:00 11.5 0 Calma 4 Sudoeste 0 -- -- 89
2020-05-30 04:00:00 13 2 Oeste 6 Sudoeste 0 -- -- 86
2020-05-30 03:00:00 15.2 3 Sudeste 9 Este 0 -- -- 80
2020-05-30 02:00:00 16.5 6 Nordeste 19 Nordeste 0 -- -- 78
2020-05-30 01:00:00 17.2 11 Nordeste 16 Nordeste 0 -- -- 71
2020-05-30 00:00:00 18.9 8 Noroeste 16 Noroeste 0 -- -- 62
2020-05-29 23:00:00 21 9 Noroeste 22 Norte 0 -- -- 57
2020-05-29 22:00:00 23.1 13 Noroeste 22 Noroeste 0 -- -- 48
2020-05-29 21:00:00 25.2 10 Norte 26 Norte 0 -- -- 42
2020-05-29 20:00:00 27.7 13 Norte 27 Norte 0 -- -- 38
2020-05-29 19:00:00 30 11 Norte 19 Nordeste 0 -- -- 36
2020-05-29 18:00:00 30.8 5 Este 15 Oeste 0 -- -- 34
2020-05-29 17:00:00 30.6 5 Este 14 Noroeste 0 -- -- 34
2020-05-29 16:00:00 29.6 4 Sudeste 13 Este 0 -- -- 35
2020-05-29 15:00:00 28.5 5 Nordeste 12 Nordeste 0 -- -- 40
2020-05-29 14:00:00 27.2 5 Este 12 Este 0 -- -- 44
2020-05-29 13:00:00 25.6 5 Norte 12 Nordeste 0 -- -- 46
2020-05-29 12:00:00 23.8 4 Nordeste 13 Norte 0 -- -- 52
2020-05-29 11:00:00 21.9 6 Nordeste 10 Norte 0 -- -- 62
2020-05-29 10:00:00 19.9 5 Nordeste 10 Noroeste 0 -- -- 65
2020-05-29 09:00:00 17.4 5 Noroeste 13 Noroeste 0 -- -- 69
2020-05-29 08:00:00 13.5 5 Norte 9 Norte 0 -- -- 84
2020-05-29 07:00:00 8.8 2 Oeste 4 Oeste 0 -- -- 94
2020-05-29 06:00:00 9 0 Calma 5 Sudoeste 0 -- -- 93
2020-05-29 05:00:00 9.4 5 Oeste 7 Sudoeste 0 -- -- 92
2020-05-29 04:00:00 10 2 Sudeste 6 Sudoeste 0 -- -- 92
2020-05-29 03:00:00 10.7 0 Calma 8 Sudoeste 0 -- -- 89
2020-05-29 02:00:00 11.5 5 Sudoeste 7 Sudoeste 0 -- -- 88
2020-05-29 01:00:00 12.6 0 Calma 6 Sur 0 -- -- 82
2020-05-29 00:00:00 14.1 6 Sur 9 Sur 0 -- -- 74
2020-05-28 23:00:00 16 0 Calma 7 Oeste 0 -- -- 69
2020-05-28 22:00:00 19.7 5 Sudoeste 8 Sudeste 0 -- -- 59
2020-05-28 21:00:00 24.8 7 Sudeste 11 Sudeste 0 -- -- 42
2020-05-28 20:00:00 28 6 Sudeste 15 Sudeste 0 -- -- 32
2020-05-28 19:00:00 29.2 9 Sudeste 17 Sudeste 0 -- -- 23
2020-05-28 18:00:00 29.2 9 Sudeste 21 Sudeste 0 -- -- 22
2020-05-28 17:00:00 29.3 13 Sudeste 23 Sudeste 0 -- -- 24
2020-05-28 16:00:00 28.9 15 Sudeste 27 Sudeste 0 -- -- 28
2020-05-28 15:00:00 27.8 15 Sudeste 24 Sudeste 0 -- -- 33
2020-05-28 14:00:00 26.8 13 Sudeste 27 Este 0 -- -- 39
2020-05-28 13:00:00 25.5 12 Sudeste 27 Sudeste 0 -- -- 47
2020-05-28 12:00:00 24.3 17 Sudeste 26 Sudeste 0 -- -- 48
2020-05-28 11:00:00 22.5 14 Sudeste 24 Sudeste 0 -- -- 52
2020-05-28 10:00:00 20.8 12 Sudeste 18 Sudeste 0 -- -- 57
2020-05-28 09:00:00 18.4 5 Sudeste 10 Sur 0 -- -- 66
2020-05-28 08:00:00 14 3 Sudoeste 8 Sudoeste 0 -- -- 90
2020-05-28 07:00:00 11.2 4 Sur 5 Sudeste 0 -- -- 89
2020-05-28 06:00:00 12.3 5 Sur 8 Sur 0 -- -- 85
2020-05-28 05:00:00 13.8 3 Sur 8 Sur 0 -- -- 78
2020-05-28 04:00:00 14.9 3 Sur 11 Sudoeste 0 -- -- 75
2020-05-28 03:00:00 15.4 8 Sudoeste 14 Sudeste 0 -- -- 74
2020-05-28 02:00:00 18.7 13 Sudeste 27 Sudeste 0 -- -- 58
2020-05-28 01:00:00 19 11 Este 20 Sudeste 0 -- -- 63
2020-05-28 00:00:00 21.1 8 Sudeste 18 Sudeste 0 -- -- 56
2020-05-27 23:00:00 21.5 10 Sudeste 16 Sudeste 0 -- -- 59
2020-05-27 22:00:00 22.3 7 Sudeste 11 Sudeste 0 -- -- 64
2020-05-27 21:00:00 25 9 Sudeste 20 Sudeste 0 -- -- 52
2020-05-27 20:00:00 27.5 15 Sudeste 24 Sudeste 0 -- -- 40
2020-05-27 19:00:00 28.8 10 Sudeste 23 Sudeste 0 -- -- 40
2020-05-27 18:00:00 29.1 15 Este 23 Sudeste 0 -- -- 39
2020-05-27 17:00:00 29 16 Sudeste 29 Sudeste 0 -- -- 40
2020-05-27 16:00:00 29.4 12 Sudeste 22 Sur 0 -- -- 36
2020-05-27 15:00:00 28.3 12 Sudeste 26 Sudeste 0 -- -- 44
2020-05-27 14:00:00 26.9 12 Sudeste 18 Sudeste 0 -- -- 47
2020-05-27 13:00:00 25.4 6 Este 13 Sudeste 0 -- -- 56
2020-05-27 12:00:00 23.6 4 Norte 10 Norte 0 -- -- 56
2020-05-27 11:00:00 21.7 5 Norte 13 Noroeste 0 -- -- 61
2020-05-27 10:00:00 19.2 5 Norte 10 Norte 0 -- -- 66
2020-05-27 09:00:00 17.4 3 Norte 8 Norte 0 -- -- 72
2020-05-27 08:00:00 15.1 3 Oeste 6 Oeste 0 -- -- 86
2020-05-27 07:00:00 13.1 0 Calma 9 Norte 0 -- -- 90
2020-05-27 06:00:00 13.6 6 Noroeste 18 Noroeste 0 -- -- 88
2020-05-27 05:00:00 14.2 11 Noroeste 17 Noroeste 0 -- -- 86
2020-05-27 04:00:00 14.5 10 Norte 16 Noroeste 0 -- -- 85
2020-05-27 03:00:00 14.6 5 Noroeste 12 Noroeste 0 -- -- 82
2020-05-27 02:00:00 14.7 6 Noroeste 12 Noroeste 0 -- -- 79
2020-05-27 01:00:00 16.6 9 Noroeste 18 Oeste 0 -- -- 70
2020-05-27 00:00:00 18 11 Noroeste 21 Noroeste 0 -- -- 68
2020-05-26 23:00:00 19.3 10 Noroeste 25 Noroeste 0 -- -- 66
2020-05-26 22:00:00 20.3 12 Noroeste 25 Norte 0 -- -- 66
2020-05-26 21:00:00 22.3 13 Norte 28 Nordeste 0 -- -- 60
2020-05-26 20:00:00 25.3 17 Norte 27 Nordeste 0 -- -- 53
2020-05-26 19:00:00 27.4 5 Norte 14 Norte 0 -- -- 47
2020-05-26 18:00:00 27.6 6 Norte 17 Norte 0 -- -- 46
2020-05-26 17:00:00 27.3 7 Noroeste 18 Noroeste 0 -- -- 48
2020-05-26 16:00:00 26.9 10 Noroeste 22 Noroeste 0 -- -- 50
2020-05-26 15:00:00 25.6 9 Norte 19 Norte 0 -- -- 56
2020-05-26 14:00:00 24.3 9 Noroeste 18 Noroeste 0 -- -- 56
2020-05-26 13:00:00 23.1 10 Noroeste 21 Noroeste 0 -- -- 57
2020-05-26 12:00:00 21.4 8 Noroeste 19 Noroeste 0 -- -- 62
2020-05-26 11:00:00 19.7 12 Noroeste 21 Noroeste 0 -- -- 65
2020-05-26 10:00:00 17.5 11 Noroeste 18 Noroeste 0 -- -- 78
2020-05-26 09:00:00 14.9 6 Norte 14 Noroeste 0 -- -- 88
2020-05-26 08:00:00 13.8 6 Noroeste 10 Noroeste 0 -- -- 94
2020-05-26 07:00:00 14.1 5 Noroeste 14 Noroeste 0.6 -- -- 95
2020-05-26 06:00:00 14.1 8 Noroeste 14 Noroeste 3 -- -- 94
2020-05-26 05:00:00 14.3 9 Noroeste 20 Noroeste 0.6 -- -- 93
2020-05-26 04:00:00 14.3 11 Noroeste 26 Noroeste 2 -- -- 92
2020-05-26 03:00:00 15.1 12 Norte 26 Norte 1.2 -- -- 88
2020-05-26 02:00:00 17.7 13 Noroeste 24 Noroeste 0 -- -- 65
2020-05-26 01:00:00 18.4 14 Noroeste 27 Noroeste 0 -- -- 65
2020-05-26 00:00:00 19.1 18 Noroeste 31 Noroeste 0 -- -- 62
2020-05-25 23:00:00 19.4 19 Noroeste 32 Noroeste 0 -- -- 63
2020-05-25 22:00:00 20.1 16 Noroeste 30 Norte 0 -- -- 66
2020-05-25 21:00:00 21.1 14 Norte 22 Noroeste 0 -- -- 64
2020-05-25 20:00:00 22.2 12 Norte 23 Norte 0 -- -- 63
2020-05-25 19:00:00 23.3 11 Norte 19 Norte 0 -- -- 61
2020-05-25 18:00:00 24.4 8 Norte 17 Norte 0 -- -- 58
2020-05-25 17:00:00 24.3 9 Norte 18 Este 0 -- -- 58
2020-05-25 16:00:00 24.5 5 Norte 16 Nordeste 0 -- -- 55
2020-05-25 15:00:00 24.6 5 Norte 14 Sudeste 0 -- -- 54
2020-05-25 14:00:00 22.9 8 Nordeste 15 Nordeste 0 -- -- 59
2020-05-25 13:00:00 21.2 3 Sur 12 Norte 0 -- -- 62
2020-05-25 12:00:00 19.3 6 Noroeste 17 Norte 0 -- -- 67
2020-05-25 11:00:00 17.9 10 Norte 16 Noroeste 0 -- -- 71
2020-05-25 10:00:00 16.8 10 Norte 18 Noroeste 0 -- -- 76
2020-05-25 09:00:00 15.8 10 Norte 17 Norte 0 -- -- 80
2020-05-25 08:00:00 15 10 Norte 17 Norte 0 -- -- 83
2020-05-25 07:00:00 14 6 Norte 12 Noroeste 0 -- -- 88
2020-05-25 06:00:00 13.8 7 Norte 13 Norte 0 -- -- 88
2020-05-25 05:00:00 14.2 6 Noroeste 12 Noroeste 0 -- -- 86
2020-05-25 04:00:00 15.1 8 Noroeste 14 Noroeste 0 -- -- 81
2020-05-25 03:00:00 15.7 9 Noroeste 17 Noroeste 0 -- -- 78
2020-05-25 02:00:00 16.6 8 Noroeste 18 Norte 0 -- -- 72
2020-05-25 01:00:00 16.8 11 Noroeste 23 Noroeste 0 -- -- 71
2020-05-25 00:00:00 17.4 12 Noroeste 21 Noroeste 0 -- -- 68
2020-05-24 23:00:00 17.8 13 Noroeste 23 Noroeste 0 -- -- 67
2020-05-24 22:00:00 19.1 8 Noroeste 20 Norte 0 -- -- 64
2020-05-24 21:00:00 21.5 9 Norte 19 Norte 0 -- -- 60
2020-05-24 20:00:00 25.8 0 Calma 8 Sudoeste 0 -- -- 44
2020-05-24 19:00:00 25.5 2 Sudeste 12 Sur 0 -- -- 41
2020-05-24 18:00:00 25.2 4 Norte 12 Este 0 -- -- 42
2020-05-24 17:00:00 24.4 5 Nordeste 14 Norte 0 -- -- 43
2020-05-24 16:00:00 24.2 6 Nordeste 17 Noroeste 0 -- -- 49
2020-05-24 15:00:00 23.2 8 Norte 20 Noroeste 0 -- -- 46
2020-05-24 14:00:00 22.4 8 Noroeste 26 Noroeste 0 -- -- 47
2020-05-24 13:00:00 20.5 7 Noroeste 23 Oeste 0 -- -- 53
2020-05-24 12:00:00 18.7 11 Noroeste 27 Noroeste 0 -- -- 58
2020-05-24 11:00:00 17.5 15 Noroeste 28 Noroeste 0 -- -- 58
2020-05-24 10:00:00 15.6 16 Noroeste 29 Noroeste 0 -- -- 64
2020-05-24 09:00:00 13 11 Noroeste 21 Noroeste 0 -- -- 75
2020-05-24 08:00:00 11.5 12 Noroeste 25 Noroeste 0 -- -- 80
2020-05-24 07:00:00 10.6 9 Noroeste 19 Noroeste 0 -- -- 81
2020-05-24 06:00:00 11.1 11 Noroeste 24 Noroeste 0 -- -- 77
2020-05-24 05:00:00 11.2 13 Noroeste 29 Noroeste 0 -- -- 77
2020-05-24 04:00:00 11.4 17 Noroeste 32 Noroeste 0 -- -- 76
2020-05-24 03:00:00 11.6 18 Noroeste 29 Noroeste 0 -- -- 76
2020-05-24 02:00:00 11.6 12 Noroeste 22 Noroeste 0 -- -- 76
2020-05-24 01:00:00 12.5 11 Noroeste 28 Noroeste 0 -- -- 70
2020-05-24 00:00:00 13.2 14 Noroeste 28 Noroeste 0 -- -- 71
2020-05-23 23:00:00 14.4 17 Noroeste 30 Norte 0 -- -- 70
2020-05-23 22:00:00 15.2 18 Noroeste 33 Noroeste 0 -- -- 69
2020-05-23 21:00:00 16.9 16 Noroeste 38 Noroeste 0 -- -- 66
2020-05-23 20:00:00 18.5 19 Norte 37 Noroeste 0 -- -- 59
2020-05-23 19:00:00 19.1 21 Norte 42 Norte 0 -- -- 58
2020-05-23 18:00:00 19.7 25 Norte 48 Norte 0 -- -- 58
2020-05-23 17:00:00 21.1 26 Norte 41 Nordeste 0 -- -- 57
2020-05-23 16:00:00 22.6 21 Norte 34 Norte 0 -- -- 55
2020-05-23 15:00:00 23.2 22 Norte 36 Noroeste 0 -- -- 55
2020-05-23 14:00:00 21.8 19 Norte 42 Norte 0 -- -- 59
2020-05-23 13:00:00 22.6 24 Noroeste 42 Noroeste 0 -- -- 62
2020-05-23 12:00:00 22.2 21 Noroeste 38 Noroeste 0 -- -- 63
2020-05-23 11:00:00 20.3 20 Noroeste 37 Noroeste 0 -- -- 68
2020-05-23 10:00:00 19.5 22 Noroeste 34 Noroeste 0 -- -- 71
2020-05-23 09:00:00 19.3 20 Noroeste 32 Noroeste 0 -- -- 72
2020-05-23 08:00:00 17.5 13 Noroeste 26 Noroeste 0 -- -- 80
2020-05-23 07:00:00 16.8 11 Noroeste 26 Noroeste 0 -- -- 84
2020-05-23 06:00:00 16.5 10 Noroeste 27 Noroeste 0 -- -- 86
2020-05-23 05:00:00 17.3 12 Noroeste 34 Noroeste 0 -- -- 83
2020-05-23 04:00:00 17.9 17 Noroeste 32 Noroeste 0 -- -- 81
2020-05-23 03:00:00 18.6 14 Noroeste 30 Noroeste 0 -- -- 80
2020-05-23 02:00:00 19.1 16 Noroeste 30 Noroeste 0 -- -- 79
2020-05-23 01:00:00 19.8 16 Noroeste 27 Norte 0 -- -- 78
2020-05-23 00:00:00 20.7 14 Noroeste 22 Noroeste 0 -- -- 73
2020-05-22 23:00:00 21.1 5 Norte 12 Nordeste 0 -- -- 65
2020-05-22 22:00:00 23.7 4 Sudoeste 9 Sudeste 0 -- -- 64
2020-05-22 21:00:00 28.2 6 Sudeste 14 Sudeste 0 -- -- 47
2020-05-22 20:00:00 30.8 12 Sudeste 26 Sudeste 0 -- -- 35
2020-05-22 19:00:00 32.2 16 Sudeste 26 Sudeste 0 -- -- 32
2020-05-22 18:00:00 32.7 16 Sudeste 26 Sudeste 0 -- -- 32
2020-05-22 17:00:00 32.9 15 Sudeste 26 Sudeste 0 -- -- 30
2020-05-22 16:00:00 32.3 15 Sudeste 23 Sudeste 0 -- -- 35
2020-05-22 15:00:00 31.1 10 Sudeste 20 Sudeste 0 -- -- 42
2020-05-22 14:00:00 29.3 3 Nordeste 13 Este 0 -- -- 40
2020-05-22 13:00:00 27.4 5 Nordeste 14 Nordeste 0 -- -- 46
2020-05-22 12:00:00 25.6 7 Norte 12 Norte 0 -- -- 53
2020-05-22 11:00:00 23.4 7 Nordeste 18 Noroeste 0 -- -- 62
2020-05-22 10:00:00 20.9 10 Noroeste 18 Noroeste 0 -- -- 64
2020-05-22 09:00:00 18.2 9 Norte 13 Norte 0 -- -- 72
2020-05-22 08:00:00 13.4 4 Sudoeste 6 Sur 0 -- -- 97
2020-05-22 07:00:00 11.1 0 Calma 3 Sur 0 -- -- 95
2020-05-22 06:00:00 11.6 3 Sur 7 Noroeste 0 -- -- 95
2020-05-22 05:00:00 11.4 5 Oeste 6 Oeste 0 -- -- 93
2020-05-22 04:00:00 12.3 0 Calma 6 Sudoeste 0 -- -- 92
2020-05-22 03:00:00 13.1 0 Calma 5 Noroeste 0 -- -- 89
2020-05-22 02:00:00 14.1 0 Calma 6 Sudoeste 0 -- -- 88
2020-05-22 01:00:00 15.3 0 Calma 7 Sudeste 0 -- -- 82
2020-05-22 00:00:00 16.7 3 Este 9 Sudoeste 0 -- -- 81
2020-05-21 23:00:00 18.5 7 Sudoeste 9 Sudoeste 0 -- -- 74
2020-05-21 22:00:00 21.9 6 Oeste 7 Sudoeste 0 -- -- 65
2020-05-21 21:00:00 27.9 0 Calma 2 Sur 0 -- -- 53
2020-05-21 20:00:00 30.7 0 Calma 4 Sudeste 0 -- -- 31
2020-05-21 19:00:00 30.8 2 Este 8 Este 0 -- -- 31
2020-05-21 18:00:00 30.2 6 Nordeste 13 Norte 0 -- -- 32
2020-05-21 17:00:00 29.9 4 Este 14 Nordeste 0 -- -- 32
2020-05-21 16:00:00 28.9 4 Noroeste 13 Nordeste 0 -- -- 38
2020-05-21 15:00:00 28.4 7 Este 15 Sudeste 0 -- -- 39
2020-05-21 14:00:00 26.6 6 Nordeste 19 Noroeste 0 -- -- 39
2020-05-21 13:00:00 25.3 10 Norte 19 Norte 0 -- -- 42
2020-05-21 12:00:00 23.7 8 Norte 18 Norte 0 -- -- 48
2020-05-21 11:00:00 21.9 10 Noroeste 20 Noroeste 0 -- -- 52
2020-05-21 10:00:00 19 9 Noroeste 22 Noroeste 0 -- -- 59
2020-05-21 09:00:00 16.2 11 Noroeste 23 Norte 0 -- -- 69
2020-05-21 08:00:00 14.6 11 Noroeste 20 Noroeste 0 -- -- 74
2020-05-21 07:00:00 13.7 11 Noroeste 22 Norte 0 -- -- 74
2020-05-21 06:00:00 13.1 8 Noroeste 15 Noroeste 0 -- -- 74
2020-05-21 05:00:00 14 8 Noroeste 15 Noroeste 0 -- -- 68
2020-05-21 04:00:00 14.9 11 Noroeste 19 Noroeste 0 -- -- 65
2020-05-21 03:00:00 14.9 10 Noroeste 15 Norte 0 -- -- 66
2020-05-21 02:00:00 16.4 8 Norte 21 Noroeste 0 -- -- 64
2020-05-21 01:00:00 17.8 9 Noroeste 21 Noroeste 0 -- -- 60
2020-05-21 00:00:00 20 13 Noroeste 25 Noroeste 0 -- -- 58
2020-05-20 23:00:00 20.5 12 Noroeste 22 Noroeste 0 -- -- 62
2020-05-20 22:00:00 21.7 8 Noroeste 16 Noroeste 0 -- -- 54
2020-05-20 21:00:00 24.2 7 Noroeste 18 Norte 0 -- -- 47
2020-05-20 20:00:00 26.9 9 Norte 23 Norte 0 -- -- 37
2020-05-20 19:00:00 28.8 10 Norte 22 Norte 0 -- -- 32
2020-05-20 18:00:00 29.5 11 Norte 23 Norte 0 -- -- 28
2020-05-20 17:00:00 29.4 9 Norte 25 Noroeste 0 -- -- 31
2020-05-20 16:00:00 29 8 Norte 24 Noroeste 0 -- -- 30
2020-05-20 15:00:00 28.5 9 Norte 22 Norte 0 -- -- 34
2020-05-20 14:00:00 27.5 9 Noroeste 21 Norte 0 -- -- 34
2020-05-20 13:00:00 25.6 13 Norte 24 Norte 0 -- -- 37
2020-05-20 12:00:00 24.1 14 Norte 23 Noroeste 0 -- -- 40
2020-05-20 11:00:00 21.6 12 Noroeste 21 Noroeste 0 -- -- 51
2020-05-20 10:00:00 19.2 10 Norte 22 Norte 0 -- -- 60
2020-05-20 09:00:00 16.5 8 Noroeste 19 Noroeste 0 -- -- 67
2020-05-20 08:00:00 14.2 10 Noroeste 20 Norte 0 -- -- 74
2020-05-20 07:00:00 12.5 9 Noroeste 19 Noroeste 0 -- -- 79
2020-05-20 06:00:00 12.9 10 Noroeste 21 Norte 0 -- -- 77
2020-05-20 05:00:00 13.5 9 Noroeste 19 Noroeste 0 -- -- 76
2020-05-20 04:00:00 13.9 11 Noroeste 21 Noroeste 0 -- -- 75
2020-05-20 03:00:00 14.2 11 Noroeste 23 Noroeste 0 -- -- 74
2020-05-20 02:00:00 14.6 8 Noroeste 21 Noroeste 0 -- -- 72
2020-05-20 01:00:00 15.8 9 Noroeste 22 Noroeste 0 -- -- 67
2020-05-20 00:00:00 17 14 Noroeste 30 Noroeste 0 -- -- 62
2020-05-19 23:00:00 18 13 Noroeste 36 Norte 0 -- -- 62
2020-05-19 22:00:00 19.6 19 Norte 40 Noroeste 0 -- -- 57
2020-05-19 21:00:00 20.9 14 Norte 36 Norte 0 -- -- 55
2020-05-19 20:00:00 23.1 20 Norte 42 Norte 0 -- -- 49
2020-05-19 19:00:00 24.9 21 Norte 39 Norte 0 -- -- 43
2020-05-19 18:00:00 26.2 25 Norte 39 Norte 0 -- -- 37
2020-05-19 17:00:00 26.5 21 Norte 41 Norte 0 -- -- 38
2020-05-19 16:00:00 26.7 23 Noroeste 44 Norte 0 -- -- 39
2020-05-19 15:00:00 26 26 Norte 44 Norte 0 -- -- 37
2020-05-19 14:00:00 25.1 26 Noroeste 43 Norte 0 -- -- 39
2020-05-19 13:00:00 24.3 23 Noroeste 44 Noroeste 0 -- -- 45
2020-05-19 12:00:00 22.3 26 Noroeste 44 Noroeste 0 -- -- 50
2020-05-19 11:00:00 20.4 28 Noroeste 45 Noroeste 0 -- -- 51
2020-05-19 10:00:00 18.8 20 Noroeste 37 Noroeste 0 -- -- 58
2020-05-19 09:00:00 15.5 18 Noroeste 30 Noroeste 0 -- -- 66
2020-05-19 08:00:00 13.4 11 Norte 27 Noroeste 0 -- -- 73
2020-05-19 07:00:00 12.2 14 Noroeste 27 Noroeste 0 -- -- 76
2020-05-19 06:00:00 12 13 Noroeste 27 Noroeste 0 -- -- 79
2020-05-19 05:00:00 12.2 14 Noroeste 23 Noroeste 0 -- -- 79
2020-05-19 04:00:00 12.5 14 Noroeste 25 Norte 0 -- -- 77
2020-05-19 03:00:00 12.9 13 Noroeste 28 Noroeste 0 -- -- 74
2020-05-19 02:00:00 13.5 12 Noroeste 27 Noroeste 0 -- -- 71
2020-05-19 01:00:00 14.7 18 Noroeste 30 Noroeste 0 -- -- 66
2020-05-19 00:00:00 15.1 18 Noroeste 28 Noroeste 0 -- -- 65
2020-05-18 23:00:00 16.4 15 Noroeste 26 Norte 0 -- -- 59
2020-05-18 22:00:00 17.5 15 Norte 39 Norte 0 -- -- 53
2020-05-18 21:00:00 19.1 17 Norte 37 Norte 0 -- -- 50
2020-05-18 20:00:00 21.4 23 Norte 40 Norte 0 -- -- 43
2020-05-18 19:00:00 23.1 24 Norte 44 Norte 0 -- -- 40
2020-05-18 18:00:00 24 23 Norte 45 Noroeste 0 -- -- 37
2020-05-18 17:00:00 24.3 25 Norte 46 Noroeste 0 -- -- 38
2020-05-18 16:00:00 24.8 19 Norte 41 Norte 0 -- -- 39
2020-05-18 15:00:00 24.4 24 Noroeste 46 Noroeste 0 -- -- 37
2020-05-18 14:00:00 24.1 23 Noroeste 43 Noroeste 0 -- -- 41
2020-05-18 13:00:00 22.7 20 Noroeste 38 Noroeste 0 -- -- 45
2020-05-18 12:00:00 21.2 18 Noroeste 39 Noroeste 0 -- -- 48
2020-05-18 11:00:00 19.5 24 Noroeste 39 Noroeste 0 -- -- 48
2020-05-18 10:00:00 17.7 20 Noroeste 34 Noroeste 0 -- -- 54
2020-05-18 09:00:00 14.1 15 Noroeste 27 Noroeste 0 -- -- 67
2020-05-18 08:00:00 11.3 16 Noroeste 27 Noroeste 0 -- -- 77
2020-05-18 07:00:00 9.9 11 Norte 26 Norte 0 -- -- 82
2020-05-18 06:00:00 10 13 Noroeste 23 Noroeste 0 -- -- 83
2020-05-18 05:00:00 10.4 10 Norte 24 Noroeste 0 -- -- 82
2020-05-18 04:00:00 10.7 15 Noroeste 27 Noroeste 0 -- -- 82
2020-05-18 03:00:00 11.2 17 Noroeste 28 Norte 0 -- -- 79
2020-05-18 02:00:00 11.2 10 Noroeste 21 Noroeste 0 -- -- 78
2020-05-18 01:00:00 12.1 11 Noroeste 19 Noroeste 0 -- -- 71
2020-05-18 00:00:00 13.3 10 Noroeste 26 Noroeste 0 -- -- 64
2020-05-17 23:00:00 14.2 18 Noroeste 29 Noroeste 0 -- -- 63
2020-05-17 22:00:00 15 10 Noroeste 23 Norte 0 -- -- 66
2020-05-17 21:00:00 16.7 12 Norte 33 Norte 0 -- -- 62
2020-05-17 20:00:00 18.9 22 Norte 39 Norte 0 -- -- 54
2020-05-17 19:00:00 21.1 18 Norte 36 Noroeste 0 -- -- 47
2020-05-17 18:00:00 22.2 19 Noroeste 37 Noroeste 0 -- -- 43
2020-05-17 17:00:00 22.3 17 Noroeste 33 Noroeste 0 -- -- 43
2020-05-17 16:00:00 21.7 20 Noroeste 36 Noroeste 0 -- -- 42
2020-05-17 15:00:00 21.3 17 Noroeste 37 Noroeste 0 -- -- 45
2020-05-17 14:00:00 20.4 19 Noroeste 40 Noroeste 0 -- -- 51
2020-05-17 13:00:00 19.7 23 Noroeste 42 Noroeste 0 -- -- 50
2020-05-17 12:00:00 17.9 22 Noroeste 44 Noroeste 0 -- -- 58
2020-05-17 11:00:00 16.3 22 Noroeste 40 Noroeste 0 -- -- 59
2020-05-17 10:00:00 15.1 25 Noroeste 46 Noroeste 0 -- -- 61
2020-05-17 09:00:00 13.2 19 Noroeste 31 Noroeste 0 -- -- 68
2020-05-17 08:00:00 10.6 12 Noroeste 22 Noroeste 0 -- -- 79
2020-05-17 07:00:00 9.4 15 Noroeste 25 Noroeste 0 -- -- 82
2020-05-17 06:00:00 9.2 12 Noroeste 24 Noroeste 0 -- -- 84
2020-05-17 05:00:00 9.5 11 Noroeste 22 Noroeste 0 -- -- 84
2020-05-17 04:00:00 10.2 12 Noroeste 29 Noroeste 0 -- -- 81
2020-05-17 03:00:00 10.9 16 Noroeste 27 Noroeste 0 -- -- 78
2020-05-17 02:00:00 11.6 19 Noroeste 34 Noroeste 0 -- -- 73
2020-05-17 01:00:00 11.4 16 Noroeste 27 Noroeste 0 -- -- 76
2020-05-17 00:00:00 11.7 13 Noroeste 28 Noroeste 0 -- -- 79
2020-05-16 23:00:00 12.7 15 Noroeste 30 Noroeste 0 -- -- 73
2020-05-16 22:00:00 13.7 17 Noroeste 34 Noroeste 0 -- -- 68
2020-05-16 21:00:00 15.5 19 Noroeste 33 Noroeste 0 -- -- 63
2020-05-16 20:00:00 16.7 21 Norte 40 Norte 0 -- -- 59
2020-05-16 19:00:00 17.6 21 Noroeste 45 Noroeste 0 -- -- 58
2020-05-16 18:00:00 18.7 27 Noroeste 47 Noroeste 0 -- -- 58
2020-05-16 17:00:00 19.2 26 Noroeste 50 Noroeste 0 -- -- 60
2020-05-16 16:00:00 19.2 30 Noroeste 45 Oeste 0 -- -- 60
2020-05-16 15:00:00 19 23 Noroeste 45 Noroeste 0 -- -- 60
2020-05-16 14:00:00 18.2 27 Noroeste 45 Noroeste 0 -- -- 65
2020-05-16 13:00:00 15.6 23 Noroeste 40 Noroeste 0 -- -- 70
2020-05-16 12:00:00 15.4 23 Noroeste 41 Noroeste 0 -- -- 72
2020-05-16 11:00:00 14.3 21 Noroeste 39 Noroeste 0 -- -- 74
2020-05-16 10:00:00 14.4 24 Noroeste 38 Noroeste 0 -- -- 73
2020-05-16 09:00:00 13.3 19 Noroeste 32 Noroeste 0 -- -- 78
2020-05-16 08:00:00 11.8 17 Noroeste 30 Noroeste 0 -- -- 81
2020-05-16 07:00:00 10.7 14 Noroeste 27 Noroeste 0 -- -- 86
2020-05-16 06:00:00 10.9 17 Noroeste 31 Oeste 0 -- -- 83
2020-05-16 05:00:00 10.9 19 Noroeste 36 Noroeste 0 -- -- 83
2020-05-16 04:00:00 11.2 18 Noroeste 33 Oeste 0 -- -- 80
2020-05-16 03:00:00 11.2 15 Noroeste 31 Noroeste 0 -- -- 79
2020-05-16 02:00:00 11.1 19 Noroeste 32 Noroeste 0 -- -- 80
2020-05-16 01:00:00 10.8 17 Noroeste 31 Noroeste 0 -- -- 86
2020-05-16 00:00:00 10.7 17 Noroeste 32 Noroeste 0 -- -- 88
2020-05-15 23:00:00 10.8 20 Noroeste 34 Noroeste 0.4 -- -- 93
2020-05-15 22:00:00 11.1 16 Noroeste 28 Noroeste 0 -- -- 92
2020-05-15 21:00:00 12.4 14 Noroeste 29 Noroeste 0 -- -- 84
2020-05-15 20:00:00 13 15 Noroeste 28 Norte 0 -- -- 80
2020-05-15 19:00:00 14 13 Norte 31 Norte 0 -- -- 76
2020-05-15 18:00:00 14.5 19 Norte 30 Norte 0 -- -- 75
2020-05-15 17:00:00 14.9 14 Noroeste 26 Noroeste 0 -- -- 79
2020-05-15 16:00:00 14.7 14 Noroeste 27 Noroeste 0.2 -- -- 80
2020-05-15 15:00:00 14.7 13 Norte 26 Norte 0 -- -- 77
2020-05-15 14:00:00 14 12 Norte 20 Noroeste 0 -- -- 88
2020-05-15 13:00:00 14.3 11 Norte 24 Norte 0 -- -- 81
2020-05-15 12:00:00 14.7 14 Noroeste 25 Noroeste 0 -- -- 80
2020-05-15 11:00:00 14.3 15 Noroeste 24 Noroeste 0 -- -- 79
2020-05-15 10:00:00 14 14 Noroeste 24 Noroeste 0 -- -- 78
2020-05-15 09:00:00 13 11 Noroeste 18 Noroeste 0 -- -- 85
2020-05-15 08:00:00 12 8 Noroeste 13 Noroeste 0 -- -- 89
2020-05-15 07:00:00 11.4 6 Noroeste 11 Noroeste 0 -- -- 91
2020-05-15 06:00:00 11.5 5 Noroeste 18 Noroeste 0 -- -- 89
2020-05-15 05:00:00 11.7 10 Noroeste 18 Noroeste 0 -- -- 89
2020-05-15 04:00:00 11.8 12 Noroeste 21 Noroeste 0 -- -- 89
2020-05-15 03:00:00 11.8 7 Noroeste 21 Noroeste 0 -- -- 90
2020-05-15 02:00:00 11.8 11 Noroeste 18 Noroeste 0 -- -- 93
2020-05-15 01:00:00 11.8 4 Norte 17 Norte 0 -- -- 95
2020-05-15 00:00:00 12.1 8 Norte 17 Norte 0.2 -- -- 94
2020-05-14 23:00:00 12.3 8 Norte 26 Norte 0.2 -- -- 92
2020-05-14 22:00:00 13.6 9 Norte 27 Noroeste 0 -- -- 82
2020-05-14 21:00:00 14.3 10 Noroeste 22 Norte 0 -- -- 80
2020-05-14 20:00:00 15.4 13 Norte 24 Norte 0 -- -- 75
2020-05-14 19:00:00 16.2 13 Norte 29 Norte 0 -- -- 76
2020-05-14 18:00:00 16.9 15 Norte 27 Norte 0 -- -- 73
2020-05-14 17:00:00 17 13 Noroeste 27 Noroeste 0 -- -- 81
2020-05-14 16:00:00 16.2 13 Noroeste 24 Noroeste 1.2 -- -- 88
2020-05-14 15:00:00 16.2 10 Noroeste 19 Noroeste 0.8 -- -- 86
2020-05-14 14:00:00 17 9 Noroeste 23 Norte 0 -- -- 73
2020-05-14 13:00:00 17.7 13 Noroeste 23 Noroeste 0 -- -- 74
2020-05-14 12:00:00 15.2 10 Noroeste 19 Noroeste 0.2 -- -- 87
2020-05-14 11:00:00 14.1 11 Noroeste 21 Noroeste 0 -- -- 83
2020-05-14 10:00:00 13.8 12 Noroeste 23 Oeste 0 -- -- 83
2020-05-14 09:00:00 13 12 Noroeste 21 Noroeste 0 -- -- 87
2020-05-14 08:00:00 11.9 9 Noroeste 14 Noroeste 0 -- -- 93
2020-05-14 07:00:00 10.7 5 Norte 11 Noroeste 0 -- -- 94
2020-05-14 06:00:00 10.8 6 Noroeste 16 Noroeste 0 -- -- 95
2020-05-14 05:00:00 11.1 8 Noroeste 14 Noroeste 0 -- -- 94
2020-05-14 04:00:00 11.3 7 Noroeste 14 Noroeste 0 -- -- 93
2020-05-14 03:00:00 11.8 8 Noroeste 12 Noroeste 0 -- -- 91
2020-05-14 02:00:00 12.9 7 Noroeste 13 Noroeste 0 -- -- 90
2020-05-14 01:00:00 13.3 8 Noroeste 15 Noroeste 0 -- -- 88
2020-05-14 00:00:00 14.4 6 Noroeste 12 Noroeste 0 -- -- 89
2020-05-13 23:00:00 14.9 4 Norte 11 Norte 0 -- -- 86
2020-05-13 22:00:00 16 2 Oeste 5 Oeste 0 -- -- 83
2020-05-13 21:00:00 17.8 4 Oeste 5 Sudoeste 0 -- -- 78
2020-05-13 20:00:00 18.7 3 Sudeste 7 Nordeste 0 -- -- 68
2020-05-13 19:00:00 18.5 2 Norte 8 Norte 0 -- -- 62
2020-05-13 18:00:00 19.1 5 Nordeste 14 Nordeste 0 -- -- 63
2020-05-13 17:00:00 20 8 Norte 15 Norte 0 -- -- 56
2020-05-13 16:00:00 19.4 9 Noroeste 24 Oeste 0 -- -- 60
2020-05-13 15:00:00 18.4 13 Oeste 24 Oeste 0 -- -- 74
2020-05-13 14:00:00 16 6 Sudoeste 11 Sudoeste 0.4 -- -- 82
2020-05-13 13:00:00 15.7 3 Norte 9 Norte 0 -- -- 78
2020-05-13 12:00:00 14.9 5 Nordeste 13 Norte 0 -- -- 81
2020-05-13 11:00:00 14.7 4 Norte 9 Nordeste 0 -- -- 83
2020-05-13 10:00:00 14.2 4 Norte 8 Norte 0 -- -- 90
2020-05-13 09:00:00 13.2 4 Este 10 Este 0 -- -- 99
2020-05-13 08:00:00 12.1 5 Este 8 Este 0 -- -- 99
2020-05-13 07:00:00 11.5 3 Sudoeste 5 Sudoeste 0 -- -- 99
2020-05-13 06:00:00 11.5 0 Calma 4 Sur 0 -- -- 99
2020-05-13 05:00:00 11.8 0 Calma 4 Nordeste 0.2 -- -- 99
2020-05-13 04:00:00 12.1 0 Calma 13 Oeste 2.6 -- -- 98
2020-05-13 03:00:00 12.2 7 Noroeste 19 Oeste 6.8 -- -- 98
2020-05-13 02:00:00 12.5 4 Norte 13 Norte 4.4 -- -- 98
2020-05-13 01:00:00 12.6 4 Norte 9 Nordeste 2.6 -- -- 96
2020-05-13 00:00:00 13.4 0 Calma 12 Este 4.8 -- -- 97
2020-05-12 23:00:00 13.6 7 Nordeste 10 Nordeste 0.6 -- -- 96
2020-05-12 22:00:00 13.8 2 Este 12 Sur 0.4 -- -- 92
2020-05-12 21:00:00 14.6 9 Sur 22 Sudeste 0.6 -- -- 88
2020-05-12 20:00:00 16.9 15 Sudeste 24 Sudeste 0 -- -- 77
2020-05-12 19:00:00 18.3 10 Sudeste 26 Sudeste 0 -- -- 71
2020-05-12 18:00:00 18.1 14 Sudeste 22 Sudeste 0 -- -- 66
2020-05-12 17:00:00 19 10 Sur 14 Sudeste 0 -- -- 61
2020-05-12 16:00:00 19 6 Este 17 Sudeste 0 -- -- 61
2020-05-12 15:00:00 19.1 8 Sur 13 Sudeste 0 -- -- 61
2020-05-12 14:00:00 19.4 5 Sudeste 18 Sudeste 0 -- -- 57
2020-05-12 13:00:00 18.7 4 Sur 10 Nordeste 0 -- -- 57
2020-05-12 12:00:00 17.1 2 Norte 15 Norte 0 -- -- 63
2020-05-12 11:00:00 15.8 9 Nordeste 16 Nordeste 0 -- -- 67
2020-05-12 10:00:00 14.8 5 Norte 13 Nordeste 0 -- -- 72
2020-05-12 09:00:00 13.5 7 Norte 12 Norte 0 -- -- 81
2020-05-12 08:00:00 11.6 5 Oeste 9 Oeste 0 -- -- 97
2020-05-12 07:00:00 9.9 6 Oeste 8 Oeste 0 -- -- 94
2020-05-12 06:00:00 10.3 2 Norte 8 Sudoeste 0 -- -- 95
2020-05-12 05:00:00 10.4 0 Calma 5 Noroeste 0 -- -- 88
2020-05-12 04:00:00 12.3 3 Oeste 11 Nordeste 0 -- -- 83
2020-05-12 03:00:00 13.5 5 Nordeste 9 Noroeste 0 -- -- 87
2020-05-12 02:00:00 13.5 5 Noroeste 12 Noroeste 0 -- -- 82
2020-05-12 01:00:00 13.9 8 Noroeste 12 Noroeste 0 -- -- 77
2020-05-12 00:00:00 15.5 6 Norte 11 Norte 0 -- -- 70
2020-05-11 23:00:00 16 6 Nordeste 13 Nordeste 0 -- -- 67
2020-05-11 22:00:00 16.6 2 Nordeste 13 Noroeste 0 -- -- 66
2020-05-11 21:00:00 17.6 8 Norte 25 Norte 0 -- -- 58
2020-05-11 20:00:00 18.7 17 Norte 30 Norte 0 -- -- 54
2020-05-11 19:00:00 19.6 17 Norte 41 Norte 0 -- -- 55
2020-05-11 18:00:00 22 21 Norte 40 Noroeste 0 -- -- 47
2020-05-11 17:00:00 23.4 19 Norte 34 Norte 0 -- -- 43
2020-05-11 16:00:00 24.6 19 Noroeste 35 Oeste 0 -- -- 35
2020-05-11 15:00:00 22.4 18 Noroeste 38 Norte 0 -- -- 43
2020-05-11 14:00:00 22.5 21 Noroeste 36 Noroeste 0 -- -- 49
2020-05-11 13:00:00 21.7 18 Noroeste 37 Norte 0 -- -- 54
2020-05-11 12:00:00 19.1 10 Noroeste 26 Noroeste 0 -- -- 64
2020-05-11 11:00:00 17.8 10 Noroeste 22 Norte 0 -- -- 68
2020-05-11 10:00:00 16.2 10 Norte 20 Norte 0 -- -- 71
2020-05-11 09:00:00 13.9 0 Calma 9 Sur 0 -- -- 83
2020-05-11 08:00:00 10.6 6 Oeste 10 Sudoeste 0 -- -- 91
2020-05-11 07:00:00 11.1 0 Calma 11 Norte 0 -- -- 87
2020-05-11 06:00:00 11.2 5 Oeste 19 Oeste 0 -- -- 86
2020-05-11 05:00:00 12.6 5 Oeste 14 Noroeste 0 -- -- 84
2020-05-11 04:00:00 13.3 9 Norte 18 Norte 0 -- -- 82
2020-05-11 03:00:00 13.8 12 Noroeste 26 Noroeste 0 -- -- 78
2020-05-11 02:00:00 14.1 12 Noroeste 21 Noroeste 0 -- -- 76
2020-05-11 01:00:00 14.1 12 Noroeste 23 Noroeste 0 -- -- 76
2020-05-11 00:00:00 14 8 Noroeste 20 Noroeste 0 -- -- 80
2020-05-10 23:00:00 14.1 9 Noroeste 19 Noroeste 0 -- -- 80
2020-05-10 22:00:00 14.2 10 Noroeste 26 Norte 0 -- -- 83
2020-05-10 21:00:00 14.8 16 Noroeste 37 Oeste 0 -- -- 78
2020-05-10 20:00:00 15.5 17 Noroeste 37 Oeste 0 -- -- 79
2020-05-10 19:00:00 15.3 16 Noroeste 28 Noroeste 0.2 -- -- 84
2020-05-10 18:00:00 14.7 13 Noroeste 40 Noroeste 0.2 -- -- 88
2020-05-10 17:00:00 17.9 19 Norte 39 Noroeste 0 -- -- 65
2020-05-10 16:00:00 17.9 10 Nordeste 28 Noroeste 0 -- -- 68
2020-05-10 15:00:00 18.5 20 Noroeste 32 Oeste 0 -- -- 57
2020-05-10 14:00:00 17.8 19 Noroeste 28 Noroeste 0 -- -- 63
2020-05-10 13:00:00 17.2 16 Noroeste 32 Noroeste 0 -- -- 65
2020-05-10 12:00:00 16.8 18 Noroeste 31 Noroeste 0 -- -- 66
2020-05-10 11:00:00 16.1 14 Noroeste 27 Noroeste 0 -- -- 73
2020-05-10 10:00:00 15.4 13 Norte 25 Norte 0 -- -- 80
2020-05-10 09:00:00 15.3 12 Norte 19 Noroeste 0 -- -- 83
2020-05-10 08:00:00 14 0 Calma 10 Sudeste 0 -- -- 96
2020-05-10 07:00:00 14.1 4 Este 16 Sudeste 0 -- -- 90
2020-05-10 06:00:00 15.9 12 Sudeste 19 Sudeste 0 -- -- 89
2020-05-10 05:00:00 16.1 9 Sudeste 21 Sudeste 0 -- -- 89
2020-05-10 04:00:00 16.6 11 Sudeste 21 Sudeste 0 -- -- 88
2020-05-10 03:00:00 16.3 10 Sur 15 Sudeste 0 -- -- 90
2020-05-10 02:00:00 15.9 4 Sur 12 Sudeste 0 -- -- 91
2020-05-10 01:00:00 15.9 5 Sudeste 15 Sur 0 -- -- 88
2020-05-10 00:00:00 16.7 9 Sur 25 Sudeste 0 -- -- 87
2020-05-09 23:00:00 17.3 7 Nordeste 32 Sudeste 0 -- -- 83
2020-05-09 22:00:00 18.7 24 Sudeste 42 Sudeste 0 -- -- 73
2020-05-09 21:00:00 19.8 21 Sudeste 43 Sur 0 -- -- 69
2020-05-09 20:00:00 21.6 26 Sudeste 44 Sudeste 0 -- -- 62
2020-05-09 19:00:00 22.7 28 Sudeste 51 Sudeste 0 -- -- 54
2020-05-09 18:00:00 22.9 27 Sudeste 50 Sudeste 0 -- -- 46
2020-05-09 17:00:00 26.3 26 Sudeste 37 Sudeste 0 -- -- 44
2020-05-09 16:00:00 24.5 16 Sudeste 31 Sudeste 0 -- -- 50
2020-05-09 15:00:00 24.7 19 Sudeste 33 Sudeste 0 -- -- 59
2020-05-09 14:00:00 24.2 18 Sudeste 31 Sudeste 0 -- -- 56
2020-05-09 13:00:00 23.1 16 Sudeste 30 Sudeste 0 -- -- 56
2020-05-09 12:00:00 21.3 18 Sudeste 25 Sudeste 0 -- -- 62
2020-05-09 11:00:00 19.3 13 Sudeste 24 Sudeste 0 -- -- 67
2020-05-09 10:00:00 16.6 11 Sudeste 16 Sudeste 0 -- -- 76
2020-05-09 09:00:00 14.8 8 Sur 13 Sur 0 -- -- 86
2020-05-09 08:00:00 13.2 2 Sudeste 10 Sur 0 -- -- 95
2020-05-09 07:00:00 13.2 5 Sudeste 15 Sur 0 -- -- 94
2020-05-09 06:00:00 14 8 Sur 12 Sudeste 0 -- -- 93
2020-05-09 05:00:00 14.3 6 Este 20 Oeste 2 -- -- 90
2020-05-09 04:00:00 14.5 14 Oeste 17 Oeste 0 -- -- 90
2020-05-09 03:00:00 14.7 9 Nordeste 18 Norte 0.2 -- -- 85
2020-05-09 02:00:00 15.7 5 Sur 14 Este 0 -- -- 74
2020-05-09 01:00:00 16.5 7 Nordeste 18 Sudeste 0 -- -- 64
2020-05-09 00:00:00 18.2 5 Sur 17 Sudeste 0 -- -- 55
2020-05-08 23:00:00 20.1 12 Sudeste 28 Sudeste 0 -- -- 49
2020-05-08 22:00:00 21.6 17 Sudeste 27 Sudeste 0 -- -- 44
2020-05-08 21:00:00 22.4 14 Sudeste 22 Sudeste 0 -- -- 45
2020-05-08 20:00:00 24.2 13 Sudeste 28 Sudeste 0 -- -- 37
2020-05-08 19:00:00 26.9 17 Sudeste 38 Sudeste 0 -- -- 36
2020-05-08 18:00:00 27.7 26 Sudeste 39 Sudeste 0 -- -- 33
2020-05-08 17:00:00 28 19 Sudeste 31 Sudeste 0 -- -- 37
2020-05-08 16:00:00 28 14 Sudeste 31 Sudeste 0 -- -- 36
2020-05-08 15:00:00 27.2 19 Sudeste 32 Sudeste 0 -- -- 38
2020-05-08 14:00:00 26.5 16 Sudeste 28 Este 0 -- -- 41
2020-05-08 13:00:00 24.7 22 Sudeste 35 Sudeste 0 -- -- 45
2020-05-08 12:00:00 23.4 27 Sudeste 38 Sudeste 0 -- -- 50
2020-05-08 11:00:00 21.8 14 Sudeste 30 Este 0 -- -- 54
2020-05-08 10:00:00 19.6 12 Sudeste 21 Este 0 -- -- 61
2020-05-08 09:00:00 17.5 9 Sudeste 17 Sudeste 0 -- -- 67
2020-05-08 08:00:00 14.2 7 Sudeste 15 Sudeste 0 -- -- 83
2020-05-08 07:00:00 13.1 13 Sudeste 19 Sudeste 0 -- -- 82
2020-05-08 06:00:00 12.8 3 Sur 5 Sudeste 0 -- -- 87
2020-05-08 05:00:00 14 0 Calma 15 Este 0 -- -- 82
2020-05-08 04:00:00 14.6 5 Este 8 Este 0 -- -- 84
2020-05-08 03:00:00 15.4 3 Sudeste 8 Este 0 -- -- 77
2020-05-08 02:00:00 17.6 3 Sur 14 Sudeste 0 -- -- 68
2020-05-08 01:00:00 19.8 10 Sudeste 23 Sudeste 0 -- -- 59
2020-05-08 00:00:00 21.1 17 Sudeste 34 Sudeste 0 -- -- 54
2020-05-07 23:00:00 22.2 15 Sudeste 30 Sudeste 0 -- -- 50
2020-05-07 22:00:00 22.8 17 Sudeste 26 Sudeste 0 -- -- 53
2020-05-07 21:00:00 23.8 13 Sudeste 32 Este 0 -- -- 52
2020-05-07 20:00:00 24.2 17 Este 30 Este 0 -- -- 53
2020-05-07 19:00:00 25.8 14 Sudeste 28 Sudeste 0 -- -- 43
2020-05-07 18:00:00 27.4 20 Sudeste 36 Sudeste 0 -- -- 41
2020-05-07 17:00:00 28.3 21 Sudeste 33 Sudeste 0 -- -- 41
2020-05-07 16:00:00 28.1 20 Sudeste 32 Sudeste 0 -- -- 39
2020-05-07 15:00:00 26.8 18 Sudeste 31 Sudeste 0 -- -- 45
2020-05-07 14:00:00 26 21 Sudeste 32 Sudeste 0 -- -- 49
2020-05-07 13:00:00 23.2 18 Sudeste 27 Sudeste 0 -- -- 56
2020-05-07 12:00:00 22.8 18 Sudeste 26 Sudeste 0 -- -- 59
2020-05-07 11:00:00 20.5 10 Este 15 Este 0 -- -- 72
2020-05-07 10:00:00 18.6 4 Nordeste 8 Este 0 -- -- 75
2020-05-07 09:00:00 15.3 0 Calma 9 Nordeste 0 -- -- 93
2020-05-07 08:00:00 11.4 0 Calma 6 Sudoeste 0 -- -- 97
2020-05-07 07:00:00 10.6 3 Oeste 8 Sudoeste 0 -- -- 96
2020-05-07 06:00:00 11.1 7 Sudoeste 8 Sur 0 -- -- 94
2020-05-07 05:00:00 11.6 0 Calma 5 Oeste 0 -- -- 93
2020-05-07 04:00:00 12.3 3 Noroeste 6 Noroeste 0 -- -- 92
2020-05-07 03:00:00 13.8 2 Noroeste 5 Este 0 -- -- 89
2020-05-07 02:00:00 15.7 5 Noroeste 12 Oeste 0 -- -- 83
2020-05-07 01:00:00 17 9 Noroeste 14 Noroeste 0 -- -- 81
2020-05-07 00:00:00 17.8 9 Noroeste 18 Oeste 0 -- -- 78
2020-05-06 23:00:00 18.1 8 Noroeste 15 Noroeste 0 -- -- 73
2020-05-06 22:00:00 19.4 6 Norte 9 Noroeste 0 -- -- 63
2020-05-06 21:00:00 23.2 4 Noroeste 8 Norte 0 -- -- 47
2020-05-06 20:00:00 25.4 6 Norte 10 Nordeste 0 -- -- 36
2020-05-06 19:00:00 26.6 4 Nordeste 10 Nordeste 0 -- -- 33
2020-05-06 18:00:00 26.8 3 Norte 14 Sudeste 0 -- -- 28
2020-05-06 17:00:00 27.4 5 Este 12 Nordeste 0 -- -- 25
2020-05-06 16:00:00 27.4 6 Este 14 Nordeste 0 -- -- 27
2020-05-06 15:00:00 26.7 6 Este 14 Este 0 -- -- 27
2020-05-06 14:00:00 25.8 8 Noroeste 18 Norte 0 -- -- 30
2020-05-06 13:00:00 25.4 9 Noroeste 21 Noroeste 0 -- -- 37
2020-05-06 12:00:00 24.2 13 Noroeste 23 Noroeste 0 -- -- 40
2020-05-06 11:00:00 21.6 10 Noroeste 21 Noroeste 0 -- -- 55
2020-05-06 10:00:00 18 5 Noroeste 13 Noroeste 0 -- -- 61
2020-05-06 09:00:00 14.9 7 Noroeste 11 Noroeste 0 -- -- 71
2020-05-06 08:00:00 10.6 2 Oeste 6 Sudoeste 0 -- -- 91
2020-05-06 07:00:00 9.2 4 Oeste 8 Oeste 0 -- -- 90
2020-05-06 06:00:00 9.8 0 Calma 10 Noroeste 0 -- -- 87
2020-05-06 05:00:00 10.6 3 Oeste 9 Noroeste 0 -- -- 83
2020-05-06 04:00:00 12.7 4 Noroeste 13 Norte 0 -- -- 75
2020-05-06 03:00:00 13.7 6 Noroeste 15 Noroeste 0 -- -- 70
2020-05-06 02:00:00 14.1 7 Noroeste 14 Noroeste 0 -- -- 65
2020-05-06 01:00:00 15.1 9 Noroeste 18 Noroeste 0 -- -- 60
2020-05-06 00:00:00 16.3 13 Noroeste 19 Noroeste 0 -- -- 57
2020-05-05 23:00:00 16.7 10 Noroeste 19 Noroeste 0 -- -- 58
2020-05-05 22:00:00 18.7 7 Noroeste 12 Noroeste 0 -- -- 63
2020-05-05 21:00:00 22.2 3 Norte 8 Nordeste 0 -- -- 52
2020-05-05 20:00:00 24.4 7 Nordeste 14 Nordeste 0 -- -- 43
2020-05-05 19:00:00 25.5 8 Nordeste 15 Nordeste 0 -- -- 34
2020-05-05 18:00:00 25.9 9 Nordeste 19 Nordeste 0 -- -- 36
2020-05-05 17:00:00 25.9 11 Nordeste 20 Nordeste 0 -- -- 41
2020-05-05 16:00:00 27 4 Sudoeste 16 Este 0 -- -- 35
2020-05-05 15:00:00 26.4 6 Sudeste 17 Este 0 -- -- 38
2020-05-05 14:00:00 25.2 6 Este 14 Noroeste 0 -- -- 38
2020-05-05 13:00:00 23.7 4 Norte 16 Norte 0 -- -- 44
2020-05-05 12:00:00 22.5 9 Norte 18 Noroeste 0 -- -- 51
2020-05-05 11:00:00 21.3 10 Noroeste 21 Noroeste 0 -- -- 53
2020-05-05 10:00:00 20.4 8 Noroeste 15 Noroeste 0 -- -- 55
2020-05-05 09:00:00 17.9 5 Noroeste 9 Oeste 0 -- -- 69
2020-05-05 08:00:00 13.1 3 Sudoeste 12 Nordeste 0 -- -- 93
2020-05-05 07:00:00 11.5 6 Oeste 10 Oeste 0 -- -- 93
2020-05-05 06:00:00 12 5 Oeste 7 Oeste 0 -- -- 92
2020-05-05 05:00:00 13.2 6 Oeste 8 Oeste 0 -- -- 91
2020-05-05 04:00:00 14.5 3 Oeste 6 Sudoeste 0 -- -- 88
2020-05-05 03:00:00 15.7 4 Oeste 8 Sudoeste 0 -- -- 84
2020-05-05 02:00:00 16.9 4 Oeste 8 Oeste 0 -- -- 82
2020-05-05 01:00:00 19.7 0 Calma 18 Noroeste 0 -- -- 64
2020-05-05 00:00:00 21.5 8 Norte 25 Oeste 0 -- -- 57
2020-05-04 23:00:00 21.9 8 Sur 20 Sur 0 -- -- 66
2020-05-04 22:00:00 22.9 6 Sur 18 Sur 0 -- -- 64
2020-05-04 21:00:00 24.4 4 Sudoeste 36 Sudeste 0 -- -- 64
2020-05-04 20:00:00 26.7 24 Sudeste 42 Sudeste 0 -- -- 52
2020-05-04 19:00:00 28.4 20 Este 28 Este 0 -- -- 49
2020-05-04 18:00:00 28.9 21 Sudeste 34 Sudeste 0 -- -- 49
2020-05-04 17:00:00 29.3 21 Sudeste 35 Sudeste 0 -- -- 47
2020-05-04 16:00:00 27.8 15 Sudeste 26 Sur 0 -- -- 51
2020-05-04 15:00:00 25.5 15 Sur 27 Sudeste 0 -- -- 55
2020-05-04 14:00:00 26.3 17 Sudeste 36 Sudeste 0 -- -- 51
2020-05-04 13:00:00 26.5 23 Sudeste 36 Sudeste 0 -- -- 52
2020-05-04 12:00:00 24.9 15 Sudeste 30 Sudeste 0 -- -- 55
2020-05-04 11:00:00 22.8 18 Sudeste 29 Sudeste 0 -- -- 64
2020-05-04 10:00:00 20.6 15 Sudeste 29 Sudeste 0 -- -- 70
2020-05-04 09:00:00 17.7 9 Sudeste 12 Sudeste 0 -- -- 86
2020-05-04 08:00:00 14.2 6 Sur 10 Sur 0 -- -- 99
2020-05-04 07:00:00 11.9 3 Este 9 Sur 0 -- -- 97
2020-05-04 06:00:00 12.6 5 Sur 8 Sur 0 -- -- 96
2020-05-04 05:00:00 13.4 3 Sur 5 Sudeste 0 -- -- 95
2020-05-04 04:00:00 13.9 3 Sudoeste 9 Sudeste 0 -- -- 93
2020-05-04 03:00:00 14.5 6 Sudeste 11 Sur 0 -- -- 93
2020-05-04 02:00:00 14.5 2 Sudoeste 6 Este 0 -- -- 93
2020-05-04 01:00:00 15.2 2 Sur 8 Sur 0 -- -- 91
2020-05-04 00:00:00 16.4 5 Sudeste 9 Sudoeste 0 -- -- 89
2020-05-03 23:00:00 17.6 8 Sudoeste 10 Sur 0 -- -- 84
2020-05-03 22:00:00 20.5 5 Sudoeste 6 Sudoeste 0 -- -- 80
2020-05-03 21:00:00 24.4 0 Calma 4 Noroeste 0 -- -- 68
2020-05-03 20:00:00 26.2 3 Este 16 Este 0 -- -- 54
2020-05-03 19:00:00 27.1 9 Este 23 Este 0 -- -- 45
2020-05-03 18:00:00 27.3 14 Este 24 Este 0 -- -- 48
2020-05-03 17:00:00 28 12 Sudeste 22 Sudeste 0 -- -- 46
2020-05-03 16:00:00 27.3 10 Este 22 Este 0 -- -- 43
2020-05-03 15:00:00 26 10 Este 20 Este 0 -- -- 46
2020-05-03 14:00:00 25.3 10 Sudeste 19 Este 0 -- -- 52
2020-05-03 13:00:00 23.1 9 Este 18 Este 0 -- -- 59
2020-05-03 12:00:00 22 4 Sudeste 8 Sudeste 0 -- -- 60
2020-05-03 11:00:00 19.6 5 Nordeste 9 Nordeste 0 -- -- 67
2020-05-03 10:00:00 17.1 3 Norte 6 Noroeste 0 -- -- 78
2020-05-03 09:00:00 14.6 0 Calma 4 Sur 0 -- -- 93
2020-05-03 08:00:00 10.1 0 Calma 7 Sudoeste 0 -- -- 98
2020-05-03 07:00:00 9.4 2 Sudeste 5 Oeste 0 -- -- 96
2020-05-03 06:00:00 10.3 3 Sudoeste 7 Noroeste 0 -- -- 95
2020-05-03 05:00:00 10.9 0 Calma 3 Nordeste 0 -- -- 93
2020-05-03 04:00:00 12.5 2 Este 11 Oeste 0 -- -- 89
2020-05-03 03:00:00 13.9 9 Noroeste 16 Noroeste 0 -- -- 85
2020-05-03 02:00:00 15 11 Noroeste 17 Noroeste 0 -- -- 81
2020-05-03 01:00:00 15 12 Noroeste 17 Noroeste 0 -- -- 83
2020-05-03 00:00:00 15.2 13 Noroeste 19 Noroeste 0 -- -- 82